• Join FlightAware (Why Join?)
  • Login
  • US Flag 
06:56PM EDT


 

Airport Tracker/Info


-or-


 

Live Flight TrackerFlight Track Log ✈ TAM3095 ✈ 10-May-2013 ✈ SBVT / VIX - SBGL / GIG

Flight Track Log - Related Links

Times and Time Zones

All times are in EDT time to prevent confusion due to time zone crossing. See the TAM3095 flight status page for this flight to view local times or setup timezone preferences in your user account.

Time Position Orientation Groundspeed Altitude Reporting Facility
EDT Latitude Longitude Course Direction KTS MPH feet Rate Location/Type
05:04PM -21.4953 -41.7002 227° Southwest  Level Estimated
05:05PM -21.5377 -41.7494 227° Southwest  Level Estimated
05:06PM -21.5802 -41.7986 227° Southwest  Level Estimated
05:07PM -21.6226 -41.8478 227° Southwest  Level Estimated
05:08PM -21.6650 -41.8971 227° Southwest  Level Estimated
05:09PM -21.7074 -41.9464 227° Southwest  Level Estimated
05:10PM -21.7498 -41.9957 227° Southwest  Level Estimated
05:11PM -21.7921 -42.0450 227° Southwest  Level Estimated
05:12PM -21.8345 -42.0944 227° Southwest  Level Estimated
05:13PM -21.8768 -42.1438 227° Southwest  Level Estimated
05:14PM -21.9191 -42.1932 227° Southwest  Level Estimated
05:15PM -21.9614 -42.2427 227° Southwest  Level Estimated
05:16PM -22.0037 -42.2922 227° Southwest  Level Estimated
05:17PM -22.0460 -42.3417 227° Southwest  Level Estimated
05:18PM -22.0883 -42.3913 227° Southwest  Level Estimated
05:19PM -22.1305 -42.4408 227° Southwest  Level Estimated
05:20PM -22.1727 -42.4904 227° Southwest  Level Estimated
05:21PM -22.2150 -42.5401 227° Southwest  Level Estimated
05:22PM -22.2572 -42.5897 227° Southwest  Level Estimated
05:23PM -22.2994 -42.6395 227° Southwest  Level Estimated
05:24PM -22.3415 -42.6892 227° Southwest  Level Estimated
05:25PM -22.3837 -42.7389 228° Southwest  Level Estimated
05:26PM -22.4258 -42.7887 228° Southwest  Level Estimated
05:27PM -22.4679 -42.8386 228° Southwest  Level Estimated
05:28PM -22.5100 -42.8884 228° Southwest  Level Estimated
05:29PM -22.5521 -42.9383 228° Southwest  Level Estimated
05:30PM -22.5942 -42.9882 228° Southwest  Level Estimated
05:31PM -22.6363 -43.0382 228° Southwest  Level Estimated
05:32PM -22.6783 -43.0881 228° Southwest  Level Estimated
05:33PM -22.7204 -43.1381 228° Southwest  Level Estimated